Time;durP1;ratioP1;P1;durP2;ratioP2;P2;SDS_P1;SDS_P2;PMS_P1;PMS_P2;Temp;Humidity;BMP_temperature;BMP_pressure;BME280_temperature;BME280_humidity;BME280_pressure;Samples;Min_cycle;Max_cycle;Signal;HPM_P1;HPM_P2
2022/08/07 00:01:17;;;;;;;1.38;0.60;;;15.20;70.40;;;;;;4941501;29;20277;-67
2022/08/07 00:03:43;;;;;;;2.17;0.85;;;15.30;70.70;;;;;;4942324;28;20377;-67
2022/08/07 00:06:09;;;;;;;2.15;0.63;;;15.30;71.20;;;;;;4938678;29;20043;-67
2022/08/07 00:08:35;;;;;;;1.45;0.70;;;15.30;71.50;;;;;;4941419;28;20492;-67
2022/08/07 00:11:03;;;;;;;0.82;0.70;;;15.40;71.10;;;;;;4947267;28;20512;-67
2022/08/07 00:13:29;;;;;;;0.63;0.60;;;15.40;70.70;;;;;;4946230;28;20038;-67
2022/08/07 00:15:54;;;;;;;1.55;0.70;;;15.40;69.80;;;;;;4945502;28;20031;-67
2022/08/07 00:18:23;;;;;;;2.10;0.90;;;15.40;69.20;;;;;;4942851;29;20413;-67
2022/08/07 00:20:50;;;;;;;2.65;0.98;;;15.40;69.10;;;;;;4942792;29;20066;-67
2022/08/07 00:23:16;;;;;;;1.25;0.88;;;15.40;68.70;;;;;;4939310;28;20044;-67
2022/08/07 00:25:42;;;;;;;1.13;0.70;;;15.30;68.90;;;;;;4939041;29;20067;-67
2022/08/07 00:28:08;;;;;;;1.55;0.80;;;15.30;69.20;;;;;;4940884;29;20102;-66
2022/08/07 00:30:34;;;;;;;2.65;1.10;;;15.30;69.40;;;;;;4945447;29;20043;-68
2022/08/07 00:33:00;;;;;;;1.52;1.00;;;15.30;69.80;;;;;;4945646;28;20504;-67
2022/08/07 00:35:27;;;;;;;0.98;0.80;;;15.30;69.30;;;;;;4946010;29;20033;-67
2022/08/07 00:37:53;;;;;;;1.38;0.70;;;15.20;69.90;;;;;;4941734;29;20039;-67
2022/08/07 00:40:20;;;;;;;1.50;1.23;;;15.20;70.60;;;;;;4941273;29;20062;-67
2022/08/07 00:42:45;;;;;;;0.70;0.70;;;15.20;69.10;;;;;;4945453;28;20574;-67
2022/08/07 00:45:11;;;;;;;1.95;0.90;;;15.20;69.40;;;;;;4936017;29;20039;-67
2022/08/07 00:47:37;;;;;;;1.45;0.77;;;15.10;69.90;;;;;;4946313;29;20274;-66
2022/08/07 00:50:04;;;;;;;1.42;0.80;;;15.10;70.20;;;;;;4945259;28;20039;-66
2022/08/07 00:52:30;;;;;;;1.00;0.68;;;15.10;70.60;;;;;;4943583;28;20082;-67
2022/08/07 00:54:56;;;;;;;0.70;0.70;;;15.00;70.90;;;;;;4946709;28;20484;-67
2022/08/07 00:57:23;;;;;;;1.77;1.30;;;15.00;71.20;;;;;;4942846;29;20028;-67
2022/08/07 00:59:49;;;;;;;1.08;0.90;;;15.00;70.60;;;;;;4941483;29;20034;-67
2022/08/07 01:02:16;;;;;;;2.72;1.10;;;14.90;69.70;;;;;;4936965;29;20032;-67
2022/08/07 01:04:43;;;;;;;2.88;1.02;;;14.90;70.60;;;;;;4938448;29;20133;-67
2022/08/07 01:07:10;;;;;;;1.15;1.05;;;14.80;70.70;;;;;;4945360;29;20037;-67
2022/08/07 01:09:36;;;;;;;2.15;0.90;;;14.80;70.80;;;;;;4933915;29;20038;-67
2022/08/07 01:12:02;;;;;;;3.85;0.90;;;14.70;71.20;;;;;;4943475;29;20053;-67
2022/08/07 01:14:28;;;;;;;1.08;0.77;;;14.60;71.90;;;;;;4943483;28;20396;-67
2022/08/07 01:16:55;;;;;;;2.20;0.93;;;14.60;73.00;;;;;;4939916;29;20031;-67
2022/08/07 01:19:22;;;;;;;2.53;1.00;;;14.60;73.50;;;;;;4944692;29;20036;-67
2022/08/07 01:21:54;;;;;;;1.30;1.10;;;14.60;73.80;;;;;;4936848;29;20028;-66
2022/08/07 01:24:22;;;;;;;1.80;1.30;;;14.60;72.50;;;;;;4940121;29;20118;-67
2022/08/07 01:26:49;;;;;;;3.17;1.25;;;14.60;71.50;;;;;;4960626;28;20031;-66
2022/08/07 01:29:16;;;;;;;1.55;1.00;;;14.60;71.40;;;;;;4941981;29;20523;-66
2022/08/07 01:31:42;;;;;;;2.20;1.00;;;14.50;72.00;;;;;;4942261;29;20038;-67
2022/08/07 01:34:11;;;;;;;1.38;1.05;;;14.50;72.60;;;;;;4940916;28;20028;-67
2022/08/07 01:36:40;;;;;;;1.65;0.90;;;14.50;73.00;;;;;;4959066;28;20031;-67
2022/08/07 01:39:11;;;;;;;2.20;1.20;;;14.40;72.80;;;;;;4940788;29;20589;-67
2022/08/07 01:41:42;;;;;;;2.85;1.25;;;14.40;72.60;;;;;;4944068;29;20114;-67
2022/08/07 01:44:10;;;;;;;1.90;1.10;;;14.30;72.40;;;;;;4941663;28;20068;-66
2022/08/07 01:46:38;;;;;;;1.92;1.00;;;14.30;72.30;;;;;;4959504;28;20035;-67
2022/08/07 01:49:04;;;;;;;1.70;1.23;;;14.20;72.60;;;;;;4943936;29;20043;-67
2022/08/07 01:51:31;;;;;;;2.30;1.10;;;14.20;72.80;;;;;;4939345;29;20118;-66
2022/08/07 01:54:01;;;;;;;2.85;1.38;;;14.20;72.70;;;;;;4943775;28;20076;-67
2022/08/07 01:56:43;;;;;;;1.77;1.00;;;14.10;72.70;;;;;;4939302;29;20027;-66
2022/08/07 01:59:42;;;;;;;1.40;1.17;;;14.10;73.10;;;;;;4951558;28;20071;-67
2022/08/07 02:02:21;;;;;;;1.83;1.20;;;14.00;73.20;;;;;;4936718;29;20043;-67
2022/08/07 02:04:53;;;;;;;1.67;0.93;;;14.00;73.40;;;;;;4945264;29;20120;-67
2022/08/07 02:07:22;;;;;;;1.75;1.08;;;13.90;73.80;;;;;;4940708;28;20036;-66
2022/08/07 02:09:53;;;;;;;2.50;1.10;;;13.90;73.90;;;;;;4934238;29;20043;-67
2022/08/07 02:12:23;;;;;;;1.40;0.93;;;13.90;73.80;;;;;;4943294;28;20091;-67
2022/08/07 02:14:54;;;;;;;1.35;0.80;;;13.90;73.80;;;;;;4938681;29;20031;-66
2022/08/07 02:17:31;;;;;;;1.60;1.00;;;13.90;74.10;;;;;;4944966;29;20031;-67
2022/08/07 02:19:59;;;;;;;1.20;0.85;;;13.80;74.30;;;;;;4933951;28;20042;-65
2022/08/07 02:22:28;;;;;;;1.73;1.08;;;13.80;74.50;;;;;;4942954;28;20526;-67
2022/08/07 02:24:56;;;;;;;1.60;0.90;;;13.80;74.70;;;;;;4944766;29;20046;-67
2022/08/07 02:27:23;;;;;;;3.67;1.15;;;13.80;74.70;;;;;;4942094;29;20412;-66
2022/08/07 02:29:51;;;;;;;1.63;0.98;;;13.80;74.80;;;;;;4936007;29;20143;-67
2022/08/07 02:32:18;;;;;;;3.10;0.80;;;13.80;75.00;;;;;;4940516;28;20050;-67
2022/08/07 02:34:47;;;;;;;1.30;0.90;;;13.80;75.00;;;;;;4940057;28;20535;-68
2022/08/07 02:37:14;;;;;;;2.25;1.10;;;13.80;75.10;;;;;;4935280;29;20031;-67
2022/08/07 02:39:43;;;;;;;1.75;1.15;;;13.80;76.00;;;;;;4944302;29;20136;-67
2022/08/07 02:42:15;;;;;;;1.30;1.20;;;13.80;75.50;;;;;;4943346;29;20129;-68
2022/08/07 02:44:45;;;;;;;1.13;1.00;;;13.80;75.70;;;;;;4944566;29;20031;-67
2022/08/07 02:47:11;;;;;;;1.30;0.98;;;13.80;75.60;;;;;;4940867;28;20035;-67
2022/08/07 02:49:37;;;;;;;1.73;0.93;;;13.80;75.60;;;;;;4956303;28;20133;-67
2022/08/07 02:52:08;;;;;;;3.50;1.27;;;13.80;75.50;;;;;;4941347;29;20067;-67
2022/08/07 02:54:36;;;;;;;1.63;1.00;;;13.80;75.60;;;;;;4939043;28;20713;-67
2022/08/07 02:57:03;;;;;;;1.45;1.00;;;13.80;75.80;;;;;;4935198;28;20043;-67
2022/08/07 02:59:31;;;;;;;1.40;1.10;;;13.80;75.70;;;;;;4943893;29;20082;-67
2022/08/07 03:02:01;;;;;;;0.90;0.90;;;13.80;75.60;;;;;;4936688;29;20024;-67
2022/08/07 03:04:28;;;;;;;2.08;1.05;;;13.70;75.60;;;;;;4942777;28;20035;-67
2022/08/07 03:06:55;;;;;;;1.00;0.90;;;13.70;75.60;;;;;;4943828;29;20039;-67
2022/08/07 03:09:24;;;;;;;1.10;0.93;;;13.70;75.70;;;;;;4939702;29;20593;-67
2022/08/07 03:11:50;;;;;;;1.45;1.27;;;13.70;74.90;;;;;;4942922;29;20142;-67
2022/08/07 03:14:17;;;;;;;1.98;1.05;;;13.70;74.40;;;;;;4942165;28;20073;-67
2022/08/07 03:16:43;;;;;;;1.13;1.00;;;13.60;75.00;;;;;;4943752;28;20035;-67
2022/08/07 03:19:10;;;;;;;2.17;1.42;;;13.60;75.40;;;;;;4947901;28;20073;-67
2022/08/07 03:21:36;;;;;;;1.98;1.00;;;13.50;75.70;;;;;;4945675;29;20031;-66
2022/08/07 03:24:02;;;;;;;1.58;1.13;;;13.50;76.00;;;;;;4944189;28;20443;-67
2022/08/07 03:26:32;;;;;;;3.17;1.10;;;13.50;76.10;;;;;;4944141;29;20031;-66
2022/08/07 03:29:06;;;;;;;1.10;1.00;;;13.40;76.90;;;;;;4942522;28;20035;-67
2022/08/07 03:31:35;;;;;;;2.33;1.27;;;13.40;76.30;;;;;;4942061;28;20031;-67
2022/08/07 03:34:03;;;;;;;2.88;1.25;;;13.40;76.10;;;;;;4944600;28;20031;-67
2022/08/07 03:36:33;;;;;;;1.60;1.20;;;13.30;75.80;;;;;;4945617;29;20027;-67
2022/08/07 03:39:07;;;;;;;3.33;0.93;;;13.30;75.70;;;;;;4934704;29;20074;-66
2022/08/07 03:41:35;;;;;;;1.20;0.88;;;13.30;75.90;;;;;;4945850;28;20031;-67
2022/08/07 03:44:01;;;;;;;2.35;1.13;;;13.30;76.20;;;;;;4944621;28;20027;-67
2022/08/07 03:46:32;;;;;;;2.00;1.35;;;13.20;76.70;;;;;;4947656;29;20490;-66
2022/08/07 03:48:59;;;;;;;1.60;1.10;;;13.20;76.60;;;;;;4945292;29;20031;-68
2022/08/07 03:51:28;;;;;;;1.40;1.08;;;13.20;76.90;;;;;;4946645;29;20019;-67
2022/08/07 03:53:54;;;;;;;1.48;1.30;;;13.20;77.30;;;;;;4937566;29;20448;-67
2022/08/07 03:56:22;;;;;;;1.90;1.20;;;13.30;77.70;;;;;;4946680;29;20038;-66
2022/08/07 03:58:49;;;;;;;2.35;1.45;;;13.20;77.80;;;;;;4945558;29;20590;-67
2022/08/07 04:01:18;;;;;;;1.55;1.05;;;13.20;77.90;;;;;;4945748;29;20084;-67
2022/08/07 04:03:46;;;;;;;3.58;1.52;;;13.20;78.20;;;;;;4940289;28;20030;-66
2022/08/07 04:06:12;;;;;;;1.70;1.30;;;13.20;78.30;;;;;;4945838;29;20714;-67
2022/08/07 04:08:40;;;;;;;1.67;1.30;;;13.30;78.30;;;;;;4947134;29;20604;-67
2022/08/07 04:11:07;;;;;;;3.53;1.48;;;13.30;78.40;;;;;;4943520;29;20039;-66
2022/08/07 04:13:34;;;;;;;3.72;1.15;;;13.30;77.40;;;;;;4936598;28;20144;-67
2022/08/07 04:16:01;;;;;;;1.23;1.10;;;13.30;77.00;;;;;;4942728;29;20507;-66
2022/08/07 04:18:27;;;;;;;1.70;1.30;;;13.30;75.50;;;;;;4949222;28;20405;-67
2022/08/07 04:20:53;;;;;;;2.17;1.50;;;13.30;76.40;;;;;;4944931;28;20031;-67
2022/08/07 04:23:20;;;;;;;2.72;1.67;;;13.30;77.00;;;;;;4945203;28;20035;-66
2022/08/07 04:25:48;;;;;;;1.70;1.30;;;13.30;77.20;;;;;;4941534;29;20027;-67
2022/08/07 04:28:15;;;;;;;1.27;1.17;;;13.30;77.50;;;;;;4937824;28;20040;-67
2022/08/07 04:30:46;;;;;;;3.05;1.70;;;13.20;77.60;;;;;;4944796;29;20130;-67
2022/08/07 04:33:18;;;;;;;2.80;1.20;;;13.20;77.90;;;;;;4945996;28;20117;-67
2022/08/07 04:35:47;;;;;;;2.45;1.08;;;13.20;77.90;;;;;;4945379;29;20027;-66
2022/08/07 04:38:15;;;;;;;2.95;1.40;;;13.20;77.70;;;;;;4942908;29;20767;-66
2022/08/07 04:40:45;;;;;;;1.88;1.40;;;13.30;77.90;;;;;;4943375;29;20058;-67
2022/08/07 04:43:16;;;;;;;2.15;1.30;;;13.30;78.30;;;;;;4941626;28;20039;-66
2022/08/07 04:45:54;;;;;;;3.13;1.45;;;13.20;78.60;;;;;;4937121;29;20035;-67
2022/08/07 04:48:36;;;;;;;2.75;1.55;;;13.20;78.90;;;;;;4939567;29;20027;-67
2022/08/07 04:51:17;;;;;;;3.05;1.88;;;13.20;79.20;;;;;;4943074;29;20086;-67
2022/08/07 04:54:09;;;;;;;3.10;1.73;;;13.30;79.70;;;;;;4939737;28;20508;-67
2022/08/07 04:56:41;;;;;;;2.63;1.50;;;13.30;80.00;;;;;;4945995;28;20028;-67
2022/08/07 04:59:41;;;;;;;3.35;1.77;;;13.30;80.20;;;;;;4942798;28;20062;-67
2022/08/07 05:02:11;;;;;;;4.25;2.03;;;13.40;80.40;;;;;;4940150;29;20573;-67
2022/08/07 05:04:55;;;;;;;2.80;2.08;;;13.40;80.50;;;;;;4956767;28;20027;-67
2022/08/07 05:07:29;;;;;;;4.78;2.10;;;13.40;80.70;;;;;;4954223;28;20048;-67
2022/08/07 05:09:58;;;;;;;6.47;3.13;;;13.50;80.90;;;;;;4943104;29;20047;-67
2022/08/07 05:12:41;;;;;;;7.18;3.50;;;13.60;81.00;;;;;;4945159;28;20036;-67
2022/08/07 05:15:15;;;;;;;6.25;3.55;;;13.60;80.90;;;;;;4940986;29;20032;-67
2022/08/07 05:17:48;;;;;;;3.47;2.10;;;13.70;81.00;;;;;;4945719;29;20070;-67
2022/08/07 05:20:25;;;;;;;4.07;2.40;;;13.80;81.40;;;;;;4944406;29;20040;-69
2022/08/07 05:22:58;;;;;;;3.67;2.13;;;13.90;81.60;;;;;;4938225;28;20067;-69
2022/08/07 05:25:26;;;;;;;3.40;2.08;;;14.00;81.80;;;;;;4945415;29;20670;-69
2022/08/07 05:27:53;;;;;;;6.30;3.00;;;14.10;81.90;;;;;;4938365;29;20039;-69
2022/08/07 05:30:21;;;;;;;5.05;2.90;;;14.20;81.80;;;;;;4944436;29;20042;-69
2022/08/07 05:32:49;;;;;;;4.55;2.40;;;14.30;81.90;;;;;;4959798;28;20519;-69
2022/08/07 05:35:17;;;;;;;4.72;2.42;;;14.40;82.00;;;;;;4943493;29;20032;-69
2022/08/07 05:37:45;;;;;;;4.65;3.00;;;14.50;82.10;;;;;;4943925;28;20062;-69
2022/08/07 05:40:12;;;;;;;5.55;2.78;;;14.60;82.20;;;;;;4941616;29;20039;-69
2022/08/07 05:42:38;;;;;;;5.80;3.00;;;14.70;82.50;;;;;;4936150;29;20146;-69
2022/08/07 05:45:09;;;;;;;4.07;2.75;;;14.80;82.60;;;;;;4940312;28;20130;-69
2022/08/07 05:47:36;;;;;;;5.07;3.25;;;15.00;82.60;;;;;;4937958;29;20046;-69
2022/08/07 05:50:02;;;;;;;5.72;2.83;;;15.20;82.50;;;;;;4944490;29;20035;-69
2022/08/07 05:52:31;;;;;;;6.65;2.67;;;15.50;82.50;;;;;;4944974;28;20114;-69
2022/08/07 05:54:57;;;;;;;3.75;2.47;;;15.90;80.80;;;;;;4944542;28;20035;-69
2022/08/07 05:57:26;;;;;;;3.53;2.30;;;16.20;79.40;;;;;;4944666;29;20063;-69
2022/08/07 05:59:53;;;;;;;4.32;2.35;;;16.40;78.20;;;;;;4939644;29;20069;-69
2022/08/07 06:02:19;;;;;;;3.13;2.05;;;16.40;77.60;;;;;;4937244;29;20042;-69
2022/08/07 06:04:51;;;;;;;3.08;2.08;;;16.50;77.30;;;;;;4943835;29;20027;-69
2022/08/07 06:07:18;;;;;;;3.22;1.88;;;16.60;77.10;;;;;;4944790;29;20035;-69
2022/08/07 06:09:45;;;;;;;3.00;1.75;;;16.60;77.00;;;;;;4960181;28;20031;-69
2022/08/07 06:12:12;;;;;;;5.60;1.88;;;16.70;75.00;;;;;;4942718;29;20035;-69
2022/08/07 06:14:38;;;;;;;1.67;1.52;;;16.70;75.00;;;;;;4943247;28;20090;-69
2022/08/07 06:17:05;;;;;;;2.80;1.40;;;16.80;73.10;;;;;;4942599;29;20035;-69
2022/08/07 06:19:34;;;;;;;2.17;1.42;;;16.90;72.80;;;;;;4938443;29;20053;-69
2022/08/07 06:22:01;;;;;;;4.53;1.70;;;17.10;72.50;;;;;;4935758;29;20051;-69
2022/08/07 06:24:28;;;;;;;5.20;1.73;;;17.20;71.80;;;;;;4944378;28;20090;-69
2022/08/07 06:26:54;;;;;;;4.82;1.63;;;17.40;70.80;;;;;;4944986;29;20043;-69
2022/08/07 06:29:26;;;;;;;2.55;1.55;;;17.50;69.30;;;;;;4942371;29;20119;-69
2022/08/07 06:31:53;;;;;;;2.47;1.38;;;17.60;67.40;;;;;;4944293;28;20480;-70
2022/08/07 06:34:23;;;;;;;4.05;1.60;;;17.70;65.80;;;;;;4955568;28;20114;-69
2022/08/07 06:36:49;;;;;;;3.22;1.40;;;17.80;64.50;;;;;;4943601;28;20051;-70
2022/08/07 06:39:15;;;;;;;3.47;1.83;;;17.90;64.20;;;;;;4936679;29;20083;-69
2022/08/07 06:41:56;;;;;;;3.30;1.60;;;18.10;63.70;;;;;;4943273;29;20034;-69
2022/08/07 06:44:33;;;;;;;4.28;1.75;;;18.20;62.20;;;;;;4936808;28;20471;-69
2022/08/07 06:47:01;;;;;;;1.95;1.58;;;18.30;62.80;;;;;;4937159;29;20094;-69
2022/08/07 06:49:28;;;;;;;2.58;1.60;;;18.40;62.60;;;;;;4944420;29;20023;-69
2022/08/07 06:51:55;;;;;;;6.28;1.42;;;18.50;62.20;;;;;;4943105;28;20042;-69
2022/08/07 06:54:25;;;;;;;3.45;1.60;;;18.70;61.30;;;;;;4938949;28;20758;-70
2022/08/07 06:56:52;;;;;;;2.13;1.50;;;18.80;59.70;;;;;;4943138;29;20110;-69
2022/08/07 06:59:36;;;;;;;3.97;1.45;;;18.90;58.50;;;;;;4937956;29;20027;-68
2022/08/07 07:02:09;;;;;;;2.65;1.30;;;19.00;58.50;;;;;;4936382;29;20039;-71
2022/08/07 07:04:37;;;;;;;2.88;1.40;;;19.10;58.50;;;;;;4946309;28;20062;-70
2022/08/07 07:07:06;;;;;;;2.55;1.33;;;19.20;57.90;;;;;;4943895;29;20089;-69
2022/08/07 07:09:32;;;;;;;2.45;1.20;;;19.30;57.80;;;;;;4944851;28;20039;-70
2022/08/07 07:12:06;;;;;;;2.55;1.33;;;19.50;57.30;;;;;;4941225;29;20518;-70
2022/08/07 07:14:55;;;;;;;2.53;1.30;;;19.60;56.90;;;;;;4939585;28;20028;-71
2022/08/07 07:17:45;;;;;;;3.00;1.13;;;19.60;55.90;;;;;;4938564;29;20069;-69
2022/08/07 07:20:17;;;;;;;4.38;1.35;;;19.80;56.00;;;;;;4939713;29;20431;-70
2022/08/07 07:22:44;;;;;;;2.47;1.05;;;19.90;55.40;;;;;;4944155;28;20036;-70
2022/08/07 07:25:12;;;;;;;3.00;1.17;;;20.00;54.70;;;;;;4943911;28;20435;-69
2022/08/07 07:28:11;;;;;;;5.38;1.33;;;20.10;54.40;;;;;;4943164;29;20062;-69
2022/08/07 07:30:41;;;;;;;1.98;1.10;;;20.30;53.90;;;;;;4928131;29;20118;-69
2022/08/07 07:33:13;;;;;;;3.40;1.25;;;20.30;53.50;;;;;;4938621;28;20047;-70
2022/08/07 07:35:45;;;;;;;1.70;1.00;;;20.40;53.70;;;;;;4939734;29;20110;-69
2022/08/07 07:38:13;;;;;;;3.72;1.10;;;20.50;53.90;;;;;;4936013;29;20516;-69
2022/08/07 07:40:40;;;;;;;2.70;1.25;;;20.60;53.30;;;;;;4937841;29;20480;-69
2022/08/07 07:43:08;;;;;;;4.70;1.13;;;20.70;53.10;;;;;;4943999;28;20038;-69
2022/08/07 07:45:36;;;;;;;1.90;1.10;;;20.70;53.10;;;;;;4943598;29;20031;-70
2022/08/07 07:48:04;;;;;;;3.00;1.17;;;20.80;53.30;;;;;;4941349;29;20035;-70
2022/08/07 07:50:30;;;;;;;1.90;1.15;;;20.90;52.50;;;;;;4941555;29;20050;-70
2022/08/07 07:52:57;;;;;;;1.65;1.13;;;20.90;52.90;;;;;;4938788;28;20448;-70
2022/08/07 07:55:26;;;;;;;3.22;1.10;;;21.00;53.10;;;;;;4941291;29;20038;-69
2022/08/07 07:57:55;;;;;;;3.55;1.33;;;21.10;52.70;;;;;;4936080;29;20031;-70
2022/08/07 08:00:23;;;;;;;3.33;1.10;;;21.20;51.70;;;;;;4940723;29;20035;-67
2022/08/07 08:02:52;;;;;;;1.52;1.10;;;21.20;51.60;;;;;;4943838;28;20500;-70
2022/08/07 08:05:19;;;;;;;3.47;1.00;;;21.30;51.60;;;;;;4944494;28;20038;-70
2022/08/07 08:07:47;;;;;;;2.72;1.30;;;21.30;50.90;;;;;;4945779;29;20047;-70
2022/08/07 08:10:14;;;;;;;1.60;0.82;;;21.30;50.50;;;;;;4944364;29;20067;-70
2022/08/07 08:12:42;;;;;;;1.27;0.70;;;21.40;50.10;;;;;;4943038;28;20070;-70
2022/08/07 08:15:08;;;;;;;4.13;0.95;;;21.50;50.10;;;;;;4942869;29;20388;-69
2022/08/07 08:17:35;;;;;;;1.88;0.90;;;21.60;50.00;;;;;;4940875;29;20039;-70
2022/08/07 08:20:06;;;;;;;1.48;0.60;;;21.60;50.00;;;;;;4945021;29;20043;-70
2022/08/07 08:28:19;;;;;;;3.72;0.98;;;21.70;48.80;;;;;;4942683;29;20043;-70
2022/08/07 08:30:46;;;;;;;1.33;0.80;;;21.70;49.30;;;;;;4941787;29;20087;-69
2022/08/07 08:33:17;;;;;;;3.78;1.30;;;21.80;48.60;;;;;;4939199;28;20813;-70
2022/08/07 08:35:47;;;;;;;2.78;1.05;;;21.90;48.30;;;;;;4943185;28;20027;-70
2022/08/07 08:38:15;;;;;;;3.28;1.00;;;21.90;49.00;;;;;;4942357;29;20039;-70
2022/08/07 08:40:53;;;;;;;2.88;0.73;;;22.00;48.10;;;;;;4948460;29;20031;-70
2022/08/07 08:43:45;;;;;;;3.67;0.80;;;22.00;48.20;;;;;;4944988;28;20035;-70
2022/08/07 08:46:20;;;;;;;1.08;0.70;;;22.10;48.00;;;;;;4944428;29;20750;-69
2022/08/07 08:49:22;;;;;;;3.47;1.23;;;22.20;47.50;;;;;;4942951;29;20042;-70
2022/08/07 08:52:06;;;;;;;5.60;1.05;;;22.30;48.80;;;;;;4875214;29;20044;-69
2022/08/07 08:54:56;;;;;;;3.47;0.80;;;22.40;48.30;;;;;;4941245;28;20023;-69
2022/08/07 08:57:36;;;;;;;1.45;0.70;;;22.50;48.80;;;;;;4943279;29;20043;-70
2022/08/07 09:00:07;;;;;;;2.08;0.77;;;22.70;47.80;;;;;;4944486;29;20059;-70
2022/08/07 09:02:38;;;;;;;1.40;0.63;;;22.80;47.50;;;;;;4943169;28;20743;-69
2022/08/07 09:05:23;;;;;;;3.97;0.63;;;22.90;46.00;;;;;;4943216;28;20050;-70
2022/08/07 09:08:23;;;;;;;2.72;0.80;;;22.90;45.80;;;;;;4939988;29;20110;-70
2022/08/07 09:11:02;;;;;;;2.50;0.85;;;23.00;46.30;;;;;;4941536;29;20035;-70
2022/08/07 09:13:31;;;;;;;1.20;0.75;;;23.00;45.00;;;;;;4940917;28;20032;-69
2022/08/07 09:16:01;;;;;;;1.48;0.73;;;23.00;45.10;;;;;;4939565;28;20037;-67
2022/08/07 09:18:53;;;;;;;1.38;1.00;;;22.90;45.20;;;;;;4946834;28;20031;-68
2022/08/07 09:21:43;;;;;;;0.95;0.73;;;22.90;45.70;;;;;;4945329;29;20078;-67
2022/08/07 09:24:31;;;;;;;1.67;0.80;;;22.80;45.60;;;;;;4943120;28;20100;-67
2022/08/07 09:27:12;;;;;;;1.80;1.15;;;22.70;45.40;;;;;;4941868;29;20150;-68
2022/08/07 09:30:09;;;;;;;1.45;1.00;;;22.80;44.20;;;;;;4942082;29;20118;-68
2022/08/07 09:32:40;;;;;;;1.92;1.13;;;22.90;44.10;;;;;;4943540;28;20138;-68
2022/08/07 09:35:12;;;;;;;2.10;1.13;;;22.90;43.90;;;;;;4940426;29;20035;-68
2022/08/07 09:38:06;;;;;;;2.42;1.25;;;22.90;43.90;;;;;;4946715;29;20035;-67
2022/08/07 09:40:41;;;;;;;1.02;0.70;;;23.00;43.30;;;;;;4938961;29;20035;-67
2022/08/07 09:43:28;;;;;;;2.67;1.37;;;22.80;43.40;;;;;;4941941;28;20035;-68
2022/08/07 09:46:19;;;;;;;1.38;0.70;;;22.80;43.50;;;;;;4941378;29;20039;-68
2022/08/07 09:49:00;;;;;;;1.02;0.70;;;22.70;43.40;;;;;;4941143;29;20058;-68
2022/08/07 09:51:35;;;;;;;1.95;0.82;;;22.60;43.90;;;;;;4939966;29;20518;-68
2022/08/07 09:54:03;;;;;;;1.42;0.73;;;22.60;43.80;;;;;;4943140;28;20030;-67
2022/08/07 09:56:38;;;;;;;1.13;0.85;;;22.60;42.90;;;;;;4946072;29;20031;-68
2022/08/07 09:59:22;;;;;;;1.98;0.85;;;22.50;43.10;;;;;;4944078;29;20147;-67
2022/08/07 10:02:16;;;;;;;0.70;0.70;;;22.50;42.60;;;;;;4943756;28;20037;-68
2022/08/07 10:04:43;;;;;;;0.75;0.60;;;22.50;42.50;;;;;;4938388;29;20034;-67
2022/08/07 10:07:25;;;;;;;0.77;0.70;;;22.50;42.30;;;;;;4938915;28;20648;-68
2022/08/07 10:10:10;;;;;;;1.00;0.80;;;22.50;42.40;;;;;;4940063;29;20042;-67
2022/08/07 10:12:48;;;;;;;2.58;0.75;;;22.60;43.10;;;;;;4939536;28;20031;-68
2022/08/07 10:15:22;;;;;;;1.85;0.85;;;22.70;41.70;;;;;;4945377;28;20047;-68
2022/08/07 10:18:25;;;;;;;1.70;0.90;;;22.80;42.30;;;;;;4945377;29;20031;-68
2022/08/07 10:21:16;;;;;;;2.03;0.80;;;22.70;41.30;;;;;;4942012;29;20038;-68
2022/08/07 10:23:42;;;;;;;1.95;0.75;;;22.90;42.50;;;;;;4941911;28;20031;-68
2022/08/07 10:26:29;;;;;;;1.83;0.60;;;23.10;41.60;;;;;;4941588;28;20435;-68
2022/08/07 10:29:17;;;;;;;2.17;0.90;;;23.30;41.10;;;;;;4939927;29;20035;-68
2022/08/07 10:32:18;;;;;;;1.42;0.70;;;23.40;40.70;;;;;;4940033;29;20045;-70
2022/08/07 10:35:06;;;;;;;1.23;0.63;;;23.50;40.10;;;;;;4940244;29;20118;-67
2022/08/07 10:38:22;;;;;;;1.67;0.52;;;23.60;41.60;;;;;;4941413;29;20888;-68
2022/08/07 10:41:12;;;;;;;1.08;0.70;;;23.90;39.70;;;;;;4927599;28;20106;-68
2022/08/07 10:43:58;;;;;;;0.77;0.43;;;24.10;40.80;;;;;;4940658;28;20035;-68
2022/08/07 10:46:28;;;;;;;1.23;0.63;;;24.30;39.30;;;;;;4939309;29;20036;-68
2022/08/07 10:49:13;;;;;;;2.15;0.80;;;24.40;40.30;;;;;;4936941;29;20078;-68
2022/08/07 10:52:02;;;;;;;1.02;0.70;;;24.50;40.30;;;;;;4939713;29;20061;-69
2022/08/07 10:54:51;;;;;;;0.95;0.52;;;24.70;40.00;;;;;;4944211;28;20039;-68
2022/08/07 10:57:47;;;;;;;1.33;0.50;;;24.80;38.00;;;;;;4942146;28;20051;-68
2022/08/07 11:00:15;;;;;;;1.95;0.60;;;24.80;38.20;;;;;;4941654;29;20047;-68
2022/08/07 11:03:20;;;;;;;2.50;0.70;;;25.00;39.90;;;;;;4940955;28;20054;-67
2022/08/07 11:06:16;;;;;;;0.50;0.50;;;25.00;38.70;;;;;;4938929;28;20138;-68
2022/08/07 11:08:51;;;;;;;1.48;0.47;;;25.20;38.80;;;;;;4936602;29;20031;-68
2022/08/07 11:11:56;;;;;;;0.93;0.57;;;25.10;38.50;;;;;;4945111;29;20035;-70
2022/08/07 11:14:29;;;;;;;2.80;0.70;;;25.10;38.20;;;;;;4941803;29;20051;-67
2022/08/07 11:17:15;;;;;;;2.00;0.80;;;25.10;38.40;;;;;;4943500;29;20126;-68
2022/08/07 11:19:44;;;;;;;;;;;25.00;38.10;;;;;;4940234;29;20031;-68
2022/08/07 11:22:28;;;;;;;0.98;0.73;;;25.00;38.50;;;;;;4937829;29;19998;-67
2022/08/07 11:25:00;;;;;;;0.73;0.60;;;24.90;39.00;;;;;;4939060;29;20443;-70
2022/08/07 11:28:11;;;;;;;1.67;0.60;;;25.00;38.90;;;;;;4938159;29;20039;-71
2022/08/07 11:30:50;;;;;;;1.08;0.60;;;25.10;37.80;;;;;;4939657;29;20043;-71
2022/08/07 11:33:29;;;;;;;0.60;0.40;;;25.20;36.90;;;;;;4943455;28;20039;-72
2022/08/07 11:36:25;;;;;;;1.15;0.50;;;25.30;37.60;;;;;;4940784;29;20035;-71
2022/08/07 11:39:02;;;;;;;3.03;0.55;;;25.50;37.40;;;;;;4941177;28;20035;-70
2022/08/07 11:41:36;;;;;;;1.00;0.70;;;25.60;36.60;;;;;;4952387;28;20484;-71
2022/08/07 11:44:15;;;;;;;1.63;0.50;;;25.70;35.30;;;;;;4940007;28;20047;-70
2022/08/07 11:47:08;;;;;;;0.57;0.50;;;25.80;36.60;;;;;;4948393;28;20039;-70
2022/08/07 11:50:00;;;;;;;2.55;0.63;;;25.80;36.70;;;;;;4954629;28;20518;-70
2022/08/07 11:52:49;;;;;;;3.20;0.77;;;25.80;36.40;;;;;;4946339;28;20830;-70
2022/08/07 11:56:13;;;;;;;1.70;0.55;;;25.80;36.40;;;;;;4944019;29;20624;-70
2022/08/07 11:58:56;;;;;;;1.08;0.60;;;25.70;36.50;;;;;;4928043;29;20559;-70
2022/08/07 12:01:34;;;;;;;3.85;0.50;;;25.70;36.70;;;;;;4942555;29;20125;-69
2022/08/07 12:04:24;;;;;;;1.92;0.40;;;25.80;36.80;;;;;;4939483;28;20560;-70
2022/08/07 12:06:59;;;;;;;1.65;0.50;;;25.80;36.60;;;;;;4944030;29;20035;-70
2022/08/07 12:09:41;;;;;;;3.20;0.73;;;25.80;36.40;;;;;;4947024;28;20043;-70
2022/08/07 12:12:09;;;;;;;3.55;0.63;;;26.00;37.20;;;;;;4944321;29;20154;-69
2022/08/07 12:14:56;;;;;;;2.33;0.60;;;26.10;36.80;;;;;;4945384;28;20492;-70
2022/08/07 12:17:26;;;;;;;2.55;0.60;;;26.30;35.10;;;;;;4943079;29;20094;-70
2022/08/07 12:20:05;;;;;;;0.40;0.40;;;26.50;36.60;;;;;;4941935;28;20085;-70
2022/08/07 12:22:46;;;;;;;1.30;0.60;;;26.50;36.00;;;;;;4944638;28;20094;-70
2022/08/07 12:28:35;;;;;;;1.63;0.63;;;26.60;36.50;;;;;;4946123;29;20054;-70
2022/08/07 12:31:13;;;;;;;0.52;0.40;;;26.70;35.70;;;;;;4940322;29;20053;-69
2022/08/07 12:33:40;;;;;;;0.50;0.50;;;26.80;35.60;;;;;;4946403;28;20042;-69
2022/08/07 12:36:09;;;;;;;0.65;0.52;;;26.90;36.10;;;;;;4941125;28;20036;-69
2022/08/07 12:38:37;;;;;;;4.30;0.73;;;27.00;35.40;;;;;;4942745;29;20054;-70
2022/08/07 12:41:05;;;;;;;1.08;0.55;;;27.20;34.60;;;;;;4938991;29;20661;-69
2022/08/07 12:43:33;;;;;;;1.90;0.65;;;27.20;35.10;;;;;;4944634;28;20144;-69
2022/08/07 12:46:29;;;;;;;0.75;0.43;;;27.10;34.50;;;;;;4944201;29;20061;-70
2022/08/07 12:49:18;;;;;;;2.67;0.50;;;27.10;34.80;;;;;;4942384;29;20047;-70
2022/08/07 12:51:53;;;;;;;1.77;0.63;;;27.10;34.60;;;;;;4944602;29;20683;-70
2022/08/07 12:54:39;;;;;;;2.72;0.50;;;27.20;34.70;;;;;;4942174;28;20043;-70
2022/08/07 12:57:06;;;;;;;0.45;0.43;;;27.20;34.50;;;;;;4939657;29;20404;-70
2022/08/07 12:59:34;;;;;;;3.35;0.77;;;27.10;33.20;;;;;;4941239;29;20016;-70
2022/08/07 13:02:26;;;;;;;0.85;0.57;;;27.10;34.40;;;;;;4940678;28;20038;-70
2022/08/07 13:05:13;;;;;;;1.98;0.45;;;27.00;34.40;;;;;;4943352;28;20035;-69
2022/08/07 13:08:06;;;;;;;1.15;0.50;;;27.00;35.00;;;;;;4942158;29;20092;-70
2022/08/07 13:11:02;;;;;;;0.88;0.57;;;27.10;35.00;;;;;;4944621;29;20073;-70
2022/08/07 13:13:48;;;;;;;2.00;0.80;;;27.00;34.40;;;;;;4942979;28;20023;-70
2022/08/07 13:16:45;;;;;;;4.72;0.80;;;27.00;34.80;;;;;;4940085;29;20039;-70
2022/08/07 13:19:31;;;;;;;;;;;26.90;34.90;;;;;;4938769;29;20844;-70
2022/08/07 13:22:29;;;;;;;2.47;0.50;;;26.90;35.20;;;;;;4943903;29;20584;-70
2022/08/07 13:25:10;;;;;;;1.42;0.70;;;26.90;35.30;;;;;;4935941;29;20042;-70
2022/08/07 13:27:55;;;;;;;3.30;0.75;;;26.90;35.00;;;;;;4943380;29;20547;-70
2022/08/07 13:30:23;;;;;;;2.22;0.80;;;26.90;34.70;;;;;;4943729;28;20039;-70
2022/08/07 13:33:08;;;;;;;1.52;0.70;;;26.90;35.10;;;;;;4942129;28;20031;-69